createdAt,value
2022-08-22T00:01:10.887Z,44.4
2022-08-22T00:02:24.435Z,44.5
2022-08-22T00:02:55.205Z,44.5
2022-08-22T00:02:58.171Z,43.5
2022-08-22T00:03:15.114Z,44.4
2022-08-22T00:03:29.151Z,44.5
2022-08-22T00:04:42.165Z,44.5
2022-08-22T00:05:54.349Z,44.5
2022-08-22T00:06:57.194Z,44.4
2022-08-22T00:08:09.454Z,44.5
2022-08-22T00:09:22.691Z,44.5
2022-08-22T00:10:25.863Z,44.5
2022-08-22T00:11:39.207Z,44.5
2022-08-22T00:12:51.636Z,44.5
2022-08-22T00:14:04.688Z,44.5
2022-08-22T00:15:07.125Z,44.5
2022-08-22T00:16:20.185Z,44.5
2022-08-22T00:17:32.568Z,44.5
2022-08-22T00:18:35.663Z,44.5
2022-08-22T00:19:47.987Z,44.5
2022-08-22T00:21:01.180Z,44.5
2022-08-22T00:22:13.553Z,44.6
2022-08-22T00:23:16.709Z,44.6
2022-08-22T00:24:29.043Z,44.5
2022-08-22T00:25:42.166Z,44.6
2022-08-22T00:26:45.589Z,44.6
2022-08-22T00:27:59.419Z,44.6
2022-08-22T00:29:11.892Z,44.6
2022-08-22T00:30:15.163Z,44.6
2022-08-22T00:31:27.594Z,44.6
2022-08-22T00:32:40.691Z,44.6
2022-08-22T00:33:53.043Z,44.6
2022-08-22T00:34:56.704Z,44.6
2022-08-22T00:36:09.097Z,44.6
2022-08-22T00:37:22.206Z,44.6
2022-08-22T00:38:26.956Z,44.6
2022-08-22T00:39:40.273Z,44.7
2022-08-22T00:40:42.739Z,44.6
2022-08-22T00:41:56.212Z,44.7
2022-08-22T00:43:08.560Z,44.7
2022-08-22T00:44:21.708Z,44.6
2022-08-22T00:45:24.177Z,44.7
2022-08-22T00:46:37.197Z,44.7
2022-08-22T00:47:49.560Z,44.7
2022-08-22T00:49:02.690Z,44.7
2022-08-22T00:50:05.217Z,44.7
2022-08-22T00:51:18.180Z,44.7
2022-08-22T00:52:30.551Z,44.7
2022-08-22T00:53:33.687Z,44.7
2022-08-22T00:54:47.060Z,44.8
2022-08-22T00:56:00.188Z,44.8
2022-08-22T00:57:02.705Z,44.8
2022-08-22T00:58:16.185Z,44.8
2022-08-22T00:59:28.617Z,44.8
2022-08-22T01:00:42.226Z,44.8
2022-08-22T01:01:44.678Z,44.8
2022-08-22T01:02:58.241Z,44.8
2022-08-22T01:04:10.698Z,44.9
2022-08-22T01:05:13.704Z,44.8
2022-08-22T01:06:26.060Z,44.9
2022-08-22T01:07:39.232Z,44.9
2022-08-22T01:08:41.681Z,44.9
2022-08-22T01:09:54.693Z,44.9
2022-08-22T01:11:07.159Z,44.9
2022-08-22T01:12:20.233Z,44.9
2022-08-22T01:13:22.704Z,44.8
2022-08-22T01:14:35.732Z,44.9
2022-08-22T01:15:48.151Z,44.9
2022-08-22T01:16:51.185Z,44.9
2022-08-22T01:18:03.724Z,44.9
2022-08-22T01:19:16.730Z,44.9
2022-08-22T01:20:29.107Z,44.9
2022-08-22T01:21:32.318Z,44.9
2022-08-22T01:22:44.747Z,44.9
2022-08-22T01:23:58.210Z,44.9
2022-08-22T01:25:00.668Z,45.0
2022-08-22T01:26:15.687Z,45.0
2022-08-22T01:27:21.695Z,45.0
2022-08-22T01:28:35.724Z,45.0
2022-08-22T01:29:48.142Z,45.0
2022-08-22T01:30:51.200Z,45.0
2022-08-22T01:32:03.572Z,45.0
2022-08-22T01:33:16.764Z,45.0
2022-08-22T01:34:29.145Z,45.0
2022-08-22T01:35:32.305Z,45.0
2022-08-22T01:36:44.707Z,45.0
2022-08-22T01:37:57.807Z,45.0
2022-08-22T01:39:10.283Z,45.0
2022-08-22T01:40:13.746Z,45.1
2022-08-22T01:41:26.579Z,45.1
2022-08-22T01:42:39.714Z,45.1
2022-08-22T01:43:59.239Z,45.1
2022-08-22T01:44:54.224Z,45.1
2022-08-22T01:46:06.580Z,45.1
2022-08-22T01:47:19.714Z,45.1
2022-08-22T01:48:22.193Z,45.1
2022-08-22T01:49:35.700Z,45.1
2022-08-22T01:50:48.069Z,45.1
2022-08-22T01:51:51.236Z,45.1
2022-08-22T01:53:03.593Z,45.1
2022-08-22T01:54:16.724Z,45.2
2022-08-22T01:55:29.107Z,45.2
2022-08-22T01:56:32.337Z,45.2
2022-08-22T01:57:44.746Z,45.2
2022-08-22T01:58:57.736Z,45.2
2022-08-22T02:00:02.448Z,45.2
2022-08-22T02:01:15.747Z,45.3
2022-08-22T02:02:28.236Z,45.2
2022-08-22T02:03:31.706Z,45.3
2022-08-22T02:04:44.144Z,45.3
2022-08-22T02:05:57.239Z,45.3
2022-08-22T02:07:09.651Z,45.3
2022-08-22T02:08:12.746Z,45.3
2022-08-22T02:09:25.168Z,45.3
2022-08-22T02:10:38.220Z,45.4
2022-08-22T02:11:40.722Z,45.4
2022-08-22T02:12:53.737Z,45.4
2022-08-22T02:14:07.761Z,45.4
2022-08-22T02:15:20.708Z,45.4
2022-08-22T02:16:23.166Z,45.5
2022-08-22T02:17:36.228Z,45.4
2022-08-22T02:18:48.665Z,45.5
2022-08-22T02:19:52.017Z,45.5
2022-08-22T02:21:05.060Z,45.5
2022-08-22T02:22:18.581Z,45.5
2022-08-22T02:23:40.910Z,45.5
2022-08-22T02:24:34.571Z,45.5
2022-08-22T02:25:46.932Z,45.6
2022-08-22T02:27:00.225Z,45.6
2022-08-22T02:28:02.748Z,45.6
2022-08-22T02:29:15.744Z,45.6
2022-08-22T02:30:28.130Z,45.6
2022-08-22T02:31:41.216Z,45.6
2022-08-22T02:32:43.738Z,45.6
2022-08-22T02:33:56.744Z,45.7
2022-08-22T02:35:09.180Z,45.7
2022-08-22T02:36:12.744Z,45.7
2022-08-22T02:37:25.149Z,45.7
2022-08-22T02:38:38.357Z,45.7
2022-08-22T02:39:50.815Z,45.8
2022-08-22T02:40:54.242Z,45.7
2022-08-22T02:42:06.642Z,45.8
2022-08-22T02:43:19.733Z,45.8
2022-08-22T02:44:22.220Z,45.8
2022-08-22T02:45:35.253Z,45.8
2022-08-22T02:46:47.626Z,45.8
2022-08-22T02:48:00.726Z,45.8
2022-08-22T02:49:03.296Z,45.8
2022-08-22T02:50:16.236Z,45.9
2022-08-22T02:51:29.997Z,45.9
2022-08-22T02:52:33.324Z,45.9
2022-08-22T02:53:45.769Z,46.0
2022-08-22T02:55:18.722Z,45.9
2022-08-22T02:56:11.319Z,45.9
2022-08-22T02:57:14.188Z,46.0
2022-08-22T02:58:27.719Z,45.9
2022-08-22T02:59:59.888Z,45.9
2022-08-22T03:00:43.548Z,46.0
2022-08-22T03:01:56.212Z,46.0
2022-08-22T03:04:36.367Z,46.0
2022-08-22T03:05:29.003Z,45.9
2022-08-22T03:06:42.232Z,45.9
2022-08-22T03:07:44.785Z,45.9
2022-08-22T03:08:58.516Z,46.0
2022-08-22T03:10:10.881Z,45.9
2022-08-22T03:11:14.195Z,45.9
2022-08-22T03:12:26.585Z,45.9
2022-08-22T03:13:49.685Z,46.0
2022-08-22T03:14:52.137Z,46.0
2022-08-22T03:15:55.215Z,46.0
2022-08-22T03:17:07.684Z,46.0
2022-08-22T03:18:20.664Z,46.0
2022-08-22T03:19:33.063Z,46.0
2022-08-22T03:20:36.277Z,46.0
2022-08-22T03:21:48.672Z,46.1
2022-08-22T03:23:01.677Z,46.1
2022-08-22T03:24:04.153Z,46.1
2022-08-22T03:25:17.191Z,46.1
2022-08-22T03:26:29.628Z,46.1
2022-08-22T03:27:42.686Z,46.2
2022-08-22T03:28:58.933Z,46.2
2022-08-22T03:30:03.686Z,46.2
2022-08-22T03:31:06.173Z,46.2
2022-08-22T03:32:19.185Z,46.2
2022-08-22T03:33:31.649Z,46.2
2022-08-22T03:34:44.712Z,46.2
2022-08-22T03:35:47.200Z,46.2
2022-08-22T03:37:00.192Z,46.2
2022-08-22T03:38:12.599Z,46.3
2022-08-22T03:39:17.330Z,46.2
2022-08-22T03:40:31.622Z,46.3
2022-08-22T03:41:45.183Z,46.3
2022-08-22T03:42:47.657Z,46.3
2022-08-22T03:44:02.202Z,46.4
2022-08-22T03:45:14.626Z,46.3
2022-08-22T03:46:18.562Z,46.4
2022-08-22T03:47:31.134Z,46.4
2022-08-22T03:48:44.193Z,46.4
2022-08-22T03:49:46.674Z,46.4
2022-08-22T03:50:59.689Z,46.4
2022-08-22T03:52:12.112Z,46.4
2022-08-22T03:53:25.229Z,46.4
2022-08-22T03:54:30.510Z,46.5
2022-08-22T03:55:43.750Z,46.5
2022-08-22T03:56:46.256Z,46.5
2022-08-22T03:57:59.853Z,46.5
2022-08-22T03:59:12.531Z,46.5
2022-08-22T04:00:25.733Z,46.6
2022-08-22T04:01:28.331Z,46.6
2022-08-22T04:02:44.133Z,46.9
2022-08-22T04:03:46.911Z,47.2
2022-08-22T04:05:00.211Z,47.3
2022-08-22T04:06:13.085Z,47.3
2022-08-22T04:07:31.431Z,47.3
2022-08-22T04:08:34.848Z,47.2
2022-08-22T04:09:38.199Z,47.1
2022-08-22T04:10:50.893Z,47.4
2022-08-22T04:12:04.222Z,47.8
2022-08-22T04:13:06.821Z,47.5
2022-08-22T04:14:20.230Z,47.4
2022-08-22T04:15:32.635Z,47.5
2022-08-22T04:16:45.722Z,47.5
2022-08-22T04:17:48.250Z,47.6
2022-08-22T04:19:11.222Z,48.1
2022-08-22T04:20:13.675Z,48.1
2022-08-22T04:21:20.233Z,48.1
2022-08-22T04:22:32.627Z,47.9
2022-08-22T04:23:45.728Z,47.6
2022-08-22T04:24:52.020Z,47.4
2022-08-22T04:26:12.159Z,47.4
2022-08-22T04:27:15.311Z,47.3
2022-08-22T04:28:18.697Z,47.3
2022-08-22T04:29:31.090Z,47.3
2022-08-22T04:30:44.193Z,47.2
2022-08-22T04:31:56.582Z,47.3
2022-08-22T04:32:59.727Z,47.2
2022-08-22T04:34:21.801Z,47.0
2022-08-22T04:35:25.229Z,46.9
2022-08-22T04:36:27.637Z,46.7
2022-08-22T04:37:40.718Z,46.3
2022-08-22T04:38:53.033Z,46.1
2022-08-22T04:40:06.266Z,45.8
2022-08-22T04:41:08.856Z,45.6
2022-08-22T04:42:32.878Z,45.3
2022-08-22T04:43:35.777Z,45.1
2022-08-22T04:44:38.765Z,44.9
2022-08-22T04:45:50.913Z,44.7
2022-08-22T04:47:03.722Z,44.4
2022-08-22T04:48:15.931Z,44.3
2022-08-22T04:49:19.209Z,44.2
2022-08-22T04:50:31.452Z,44.2
2022-08-22T04:51:44.232Z,44.1
2022-08-22T04:52:56.430Z,44.1
2022-08-22T04:53:59.724Z,44.1
2022-08-22T04:55:11.923Z,44.2
2022-08-22T04:56:24.710Z,44.1
2022-08-22T04:57:36.835Z,44.0
2022-08-22T04:58:39.705Z,44.0
2022-08-22T04:59:51.828Z,44.0
2022-08-22T05:01:05.215Z,44.0
2022-08-22T05:02:07.581Z,44.0
2022-08-22T05:03:20.748Z,43.9
2022-08-22T05:04:32.902Z,43.9
2022-08-22T05:05:45.706Z,43.8
2022-08-22T05:06:47.975Z,43.7
2022-08-22T05:08:00.901Z,43.6
2022-08-22T05:09:16.158Z,43.6
2022-08-22T05:10:19.239Z,43.5
2022-08-22T05:11:31.386Z,43.5
2022-08-22T05:12:44.258Z,43.5
2022-08-22T05:13:46.547Z,43.4
2022-08-22T05:14:59.249Z,43.3
2022-08-22T05:16:13.502Z,43.4
2022-08-22T05:17:26.319Z,43.3
2022-08-22T05:18:29.840Z,43.4
2022-08-22T05:19:43.238Z,43.4
2022-08-22T05:20:55.383Z,43.3
2022-08-22T05:21:58.253Z,43.3
2022-08-22T05:23:16.963Z,43.2
2022-08-22T05:24:20.743Z,43.1
2022-08-22T05:25:32.876Z,43.1
2022-08-22T05:26:37.742Z,43.1
2022-08-22T05:27:49.864Z,43.1
2022-08-22T05:28:56.235Z,42.9
2022-08-22T05:30:08.311Z,42.9
2022-08-22T05:31:23.966Z,42.8
2022-08-22T05:32:26.384Z,42.8
2022-08-22T05:33:39.252Z,42.7
2022-08-22T05:34:51.686Z,42.7
2022-08-22T05:36:04.753Z,42.8
2022-08-22T05:37:08.188Z,42.6
2022-08-22T05:38:21.225Z,42.5
2022-08-22T05:39:33.322Z,42.5
2022-08-22T05:40:36.228Z,42.5
2022-08-22T05:41:50.087Z,42.8
2022-08-22T05:43:03.248Z,42.7
2022-08-22T05:44:05.435Z,42.6
2022-08-22T05:45:18.265Z,42.6
2022-08-22T05:46:30.386Z,42.5
2022-08-22T05:47:43.251Z,42.5
2022-08-22T05:48:45.532Z,42.5
2022-08-22T05:49:58.250Z,42.5
2022-08-22T05:51:10.357Z,42.5
2022-08-22T05:52:23.249Z,42.6
2022-08-22T05:53:27.206Z,42.6
2022-08-22T05:54:40.224Z,42.7
2022-08-22T05:55:42.506Z,42.7
2022-08-22T05:56:55.242Z,42.7
2022-08-22T05:58:07.303Z,42.6
2022-08-22T05:59:20.263Z,42.6
2022-08-22T06:00:22.449Z,42.6
2022-08-22T06:01:35.299Z,42.7
2022-08-22T06:02:47.372Z,42.7
2022-08-22T06:04:00.235Z,42.7
2022-08-22T06:05:02.491Z,42.7
2022-08-22T06:06:15.441Z,42.6
2022-08-22T06:07:29.077Z,42.6
2022-08-22T06:08:52.023Z,42.6
2022-08-22T06:09:44.444Z,42.5
2022-08-22T06:10:57.226Z,42.5
2022-08-22T06:12:11.678Z,42.5
2022-08-22T06:13:24.679Z,42.6
2022-08-22T06:14:37.634Z,42.5
2022-08-22T06:15:33.258Z,42.4
2022-08-22T06:16:47.689Z,42.3
2022-08-22T06:17:51.746Z,42.3
2022-08-22T06:19:03.856Z,42.3
2022-08-22T06:20:12.249Z,42.3
2022-08-22T06:21:24.337Z,42.3
2022-08-22T06:22:37.239Z,42.3
2022-08-22T06:23:49.337Z,42.4
2022-08-22T06:24:52.223Z,42.4
2022-08-22T06:26:04.268Z,42.4
2022-08-22T06:27:17.283Z,42.4
2022-08-22T06:28:19.581Z,42.4
2022-08-22T06:29:32.232Z,42.4
2022-08-22T06:30:44.273Z,42.4
2022-08-22T06:31:57.275Z,42.4
2022-08-22T06:33:01.037Z,42.4
2022-08-22T06:34:14.258Z,42.4
2022-08-22T06:35:26.358Z,42.5
2022-08-22T06:36:29.226Z,42.4
2022-08-22T06:37:41.325Z,42.5
2022-08-22T06:38:54.275Z,42.5
2022-08-22T06:40:06.489Z,42.5
2022-08-22T06:41:09.743Z,42.5
2022-08-22T06:42:21.847Z,42.5
2022-08-22T06:43:35.046Z,42.5
2022-08-22T06:44:47.090Z,42.5
2022-08-22T06:45:50.317Z,42.6
2022-08-22T06:47:02.423Z,42.5
2022-08-22T06:48:15.284Z,42.6
2022-08-22T06:49:17.468Z,42.6
2022-08-22T06:50:30.271Z,42.6
2022-08-22T06:51:42.466Z,42.7
2022-08-22T06:52:55.307Z,42.6
2022-08-22T06:53:57.995Z,42.6
2022-08-22T06:55:10.780Z,42.6
2022-08-22T06:56:22.887Z,42.6
2022-08-22T06:57:36.263Z,42.6
2022-08-22T06:58:38.460Z,42.6
2022-08-22T06:59:51.264Z,42.6
2022-08-22T07:01:11.219Z,42.7
2022-08-22T07:02:15.285Z,42.6
2022-08-22T07:03:18.622Z,42.6
2022-08-22T07:04:31.287Z,42.6
2022-08-22T07:05:43.490Z,42.6
2022-08-22T07:06:46.796Z,42.6
2022-08-22T07:07:59.056Z,42.6
2022-08-22T07:09:12.278Z,42.5
2022-08-22T07:10:24.392Z,42.5
2022-08-22T07:11:37.278Z,42.6
2022-08-22T07:12:39.529Z,42.5
2022-08-22T07:13:52.263Z,42.5
2022-08-22T07:14:54.434Z,42.5
2022-08-22T07:16:07.277Z,42.5
2022-08-22T07:17:19.364Z,42.5
2022-08-22T07:18:32.257Z,42.5
2022-08-22T07:19:34.481Z,42.5
2022-08-22T07:20:47.280Z,42.5
2022-08-22T07:21:59.871Z,42.4
2022-08-22T07:23:12.810Z,42.4
2022-08-22T07:24:15.096Z,42.4
2022-08-22T07:25:27.766Z,42.4
2022-08-22T07:26:39.929Z,42.4
2022-08-22T07:27:52.814Z,42.4
2022-08-22T07:28:58.532Z,42.4
2022-08-22T07:30:13.050Z,42.4
2022-08-22T07:31:15.596Z,42.4
2022-08-22T07:32:30.763Z,42.3
2022-08-22T07:33:33.029Z,42.3
2022-08-22T07:34:45.794Z,42.3
2022-08-22T07:35:57.838Z,42.4
2022-08-22T07:37:10.827Z,42.4
2022-08-22T07:38:14.129Z,42.3
2022-08-22T07:39:26.764Z,42.3
2022-08-22T07:40:39.625Z,42.4
2022-08-22T07:41:42.786Z,42.4
2022-08-22T07:42:54.933Z,42.4
2022-08-22T07:44:07.789Z,42.4
2022-08-22T07:45:10.061Z,42.5
2022-08-22T07:46:22.857Z,42.5
2022-08-22T07:47:49.218Z,42.5
2022-08-22T07:49:05.945Z,42.5
2022-08-22T07:49:51.074Z,42.5
2022-08-22T07:51:03.185Z,42.5
2022-08-22T07:52:16.285Z,42.6
2022-08-22T07:53:28.363Z,42.5
2022-08-22T07:54:31.781Z,42.6
2022-08-22T07:58:00.239Z,42.6
2022-08-22T07:58:03.988Z,42.8
2022-08-22T07:59:16.418Z,42.8
2022-08-22T08:00:19.361Z,42.8
2022-08-22T08:01:31.443Z,42.7
2022-08-22T08:02:44.353Z,42.7
2022-08-22T08:03:56.434Z,42.6
2022-08-22T08:04:59.363Z,42.6
2022-08-22T08:06:31.077Z,42.6
2022-08-22T08:07:24.408Z,42.7
2022-08-22T08:08:46.145Z,42.7
2022-08-22T08:09:39.365Z,42.7
2022-08-22T08:10:51.686Z,42.7
2022-08-22T08:12:04.406Z,42.7
2022-08-22T08:13:06.649Z,42.7
2022-08-22T08:14:19.405Z,42.7
2022-08-22T08:15:31.499Z,42.8
2022-08-22T08:17:03.879Z,42.8
2022-08-22T08:17:46.323Z,42.8
2022-08-22T08:19:28.908Z,42.8
2022-08-22T08:20:11.410Z,42.8
2022-08-22T08:21:13.533Z,42.7
2022-08-22T08:22:26.367Z,42.7
2022-08-22T08:23:39.678Z,42.7
2022-08-22T08:24:52.899Z,42.6
2022-08-22T08:25:55.298Z,42.6
2022-08-22T08:27:08.379Z,42.6
2022-08-22T08:28:20.466Z,42.6
2022-08-22T08:29:24.876Z,42.6
2022-08-22T08:30:36.941Z,42.6
2022-08-22T08:31:49.909Z,42.5
2022-08-22T08:32:52.135Z,42.6
2022-08-22T08:34:10.384Z,42.5
2022-08-22T08:35:12.607Z,42.5
2022-08-22T08:36:25.391Z,42.5
2022-08-22T08:37:37.469Z,42.5
2022-08-22T08:39:09.913Z,42.5
2022-08-22T08:39:52.376Z,42.6
2022-08-22T08:41:04.506Z,42.5
2022-08-22T08:42:17.359Z,42.5
2022-08-22T08:43:29.417Z,42.4
2022-08-22T08:44:32.360Z,42.4
2022-08-22T08:45:44.459Z,42.3
2022-08-22T08:46:57.453Z,42.3
2022-08-22T08:47:59.702Z,42.4
2022-08-22T08:49:12.870Z,42.4
2022-08-22T08:50:24.708Z,42.4
2022-08-22T08:51:37.421Z,42.4
2022-08-22T08:52:39.568Z,42.4
2022-08-22T08:53:52.413Z,42.4
2022-08-22T08:55:19.714Z,42.4
2022-08-22T08:56:17.805Z,42.4
2022-08-22T08:57:22.986Z,42.3
2022-08-22T08:58:35.884Z,42.3
2022-08-22T08:59:44.788Z,42.2
2022-08-22T09:00:48.995Z,42.2
2022-08-22T09:02:01.257Z,42.3
2022-08-22T09:03:15.446Z,42.2
2022-08-22T09:04:18.830Z,42.2
2022-08-22T09:05:31.928Z,42.1
2022-08-22T09:06:43.997Z,42.1
2022-08-22T09:07:46.422Z,42.1
2022-08-22T09:09:00.087Z,42.1
2022-08-22T09:10:12.894Z,42.1
2022-08-22T09:11:15.359Z,42.1
2022-08-22T09:12:28.895Z,42.0
2022-08-22T09:13:41.053Z,42.0
2022-08-22T09:14:53.940Z,41.9
2022-08-22T09:16:04.397Z,41.7
2022-08-22T09:17:07.882Z,41.8
2022-08-22T09:18:19.872Z,41.8
2022-08-22T09:19:23.430Z,41.5
2022-08-22T09:20:35.603Z,41.4
2022-08-22T09:21:49.411Z,41.5
2022-08-22T09:23:01.387Z,41.5
2022-08-22T09:24:04.901Z,41.5
2022-08-22T09:25:17.087Z,41.4
2022-08-22T09:26:29.887Z,41.3
2022-08-22T09:27:32.011Z,41.2
2022-08-22T09:28:44.927Z,41.2
2022-08-22T09:29:59.783Z,41.1
2022-08-22T09:31:02.886Z,41.1
2022-08-22T09:32:19.233Z,41.1
2022-08-22T09:33:31.900Z,40.8
2022-08-22T09:34:34.095Z,40.9
2022-08-22T09:35:46.897Z,40.9
2022-08-22T09:36:51.503Z,40.9
2022-08-22T09:38:14.405Z,40.9
2022-08-22T09:39:16.747Z,40.7
2022-08-22T09:40:24.765Z,40.6
2022-08-22T09:41:37.008Z,40.6
2022-08-22T09:42:39.909Z,40.5
2022-08-22T09:43:57.020Z,40.6
2022-08-22T09:45:01.912Z,40.5
2022-08-22T09:46:14.972Z,40.3
2022-08-22T09:47:17.947Z,40.4
2022-08-22T09:48:26.954Z,40.4
2022-08-22T09:49:39.901Z,40.4
2022-08-22T09:50:52.700Z,40.3
2022-08-22T09:52:05.140Z,40.0
2022-08-22T09:53:06.997Z,40.3
2022-08-22T09:54:20.007Z,40.2
2022-08-22T09:55:35.185Z,40.2
2022-08-22T09:56:38.928Z,40.2
2022-08-22T09:57:52.607Z,40.2
2022-08-22T09:58:56.417Z,40.1
2022-08-22T10:00:09.399Z,40.1
2022-08-22T10:01:22.464Z,40.0
2022-08-22T10:02:24.603Z,40.0
2022-08-22T10:03:37.913Z,39.8
2022-08-22T10:04:50.144Z,39.9
2022-08-22T10:06:02.928Z,39.9
2022-08-22T10:07:27.311Z,39.9
2022-08-22T10:08:20.415Z,39.8
2022-08-22T10:09:31.207Z,39.7
2022-08-22T10:10:34.434Z,39.5
2022-08-22T10:11:46.366Z,38.9
2022-08-22T10:13:00.018Z,39.4
2022-08-22T10:14:02.704Z,39.5
2022-08-22T10:15:15.446Z,39.4
2022-08-22T10:16:29.030Z,39.3
2022-08-22T10:17:31.920Z,39.2
2022-08-22T10:18:53.256Z,39.4
2022-08-22T10:19:58.454Z,39.2
2022-08-22T10:21:00.530Z,39.4
2022-08-22T10:22:13.439Z,39.4
2022-08-22T10:23:25.683Z,39.4
2022-08-22T10:24:44.031Z,39.1
2022-08-22T10:25:46.385Z,39.1
2022-08-22T10:26:49.576Z,39.0
2022-08-22T10:28:01.600Z,38.9
2022-08-22T10:29:14.407Z,39.0
2022-08-22T10:31:06.605Z,38.1
2022-08-22T10:31:31.929Z,38.6
2022-08-22T10:32:43.990Z,38.7
2022-08-22T10:34:07.926Z,38.6
2022-08-22T10:35:00.347Z,38.3
2022-08-22T10:36:13.922Z,38.3
2022-08-22T10:37:15.977Z,37.9
2022-08-22T10:38:28.968Z,38.3
2022-08-22T10:39:40.920Z,38.3
2022-08-22T10:40:46.921Z,37.9
2022-08-22T10:41:59.707Z,37.9
2022-08-22T10:43:12.424Z,37.7
2022-08-22T10:44:14.658Z,38.0
2022-08-22T10:45:46.928Z,38.0
2022-08-22T10:47:57.844Z,36.5
2022-08-22T10:49:46.604Z,37.7
2022-08-22T10:50:33.587Z,37.6
2022-08-22T10:51:16.936Z,37.3
2022-08-22T10:52:29.583Z,37.3
2022-08-22T10:54:20.717Z,37.2
2022-08-22T10:54:44.070Z,37.2
2022-08-22T10:55:56.917Z,37.1
2022-08-22T10:57:09.642Z,37.0
2022-08-22T10:58:11.646Z,36.1
2022-08-22T10:59:53.622Z,36.3
2022-08-22T11:00:36.179Z,36.6
2022-08-22T11:02:28.099Z,36.6
2022-08-22T11:02:53.328Z,36.5
2022-08-22T11:04:05.695Z,36.6
2022-08-22T11:05:28.124Z,36.5
2022-08-22T11:06:20.373Z,36.4
2022-08-22T11:07:33.098Z,36.2
2022-08-22T11:08:46.533Z,36.4
2022-08-22T11:09:49.153Z,36.2
2022-08-22T11:11:02.683Z,36.1
2022-08-22T11:12:16.636Z,35.9
2022-08-22T11:13:19.193Z,35.8
2022-08-22T11:14:31.621Z,35.7
2022-08-22T11:16:12.814Z,35.5
2022-08-22T11:16:46.124Z,35.3
2022-08-22T11:17:57.943Z,35.3
2022-08-22T11:19:14.944Z,35.2
2022-08-22T11:20:19.531Z,35.1
2022-08-22T11:21:32.768Z,34.6
2022-08-22T11:22:34.894Z,35.1
2022-08-22T11:23:47.601Z,35.2
2022-08-22T11:25:03.697Z,34.4
2022-08-22T11:26:07.131Z,34.9
2022-08-22T11:27:20.844Z,35.0
2022-08-22T11:29:13.156Z,34.5
2022-08-22T11:29:37.054Z,34.4
2022-08-22T11:30:50.366Z,34.7
2022-08-22T11:31:53.361Z,34.8
2022-08-22T11:33:05.422Z,34.0
2022-08-22T11:34:20.556Z,34.6
2022-08-22T11:35:22.690Z,34.7
2022-08-22T11:36:35.353Z,34.5
2022-08-22T11:37:47.263Z,34.3
2022-08-22T11:39:13.811Z,34.1
2022-08-22T11:40:00.907Z,33.6
2022-08-22T11:41:12.720Z,33.5
2022-08-22T11:42:25.388Z,33.3
2022-08-22T11:43:32.531Z,32.2
2022-08-22T11:44:50.228Z,31.9
2022-08-22T11:45:53.103Z,32.0
2022-08-22T11:47:05.859Z,32.6
2022-08-22T11:48:09.741Z,32.6
2022-08-22T11:49:25.787Z,31.7
2022-08-22T11:51:55.664Z,31.5
2022-08-22T11:52:51.960Z,32.2
2022-08-22T11:54:04.755Z,32.1
2022-08-22T11:55:36.038Z,32.2
2022-08-22T11:56:19.231Z,32.4
2022-08-22T11:57:31.212Z,32.5
2022-08-22T11:58:43.724Z,31.8
2022-08-22T11:59:45.629Z,31.0
2022-08-22T12:01:00.798Z,31.8
2022-08-22T12:02:04.181Z,31.9
2022-08-22T12:03:16.708Z,31.8
2022-08-22T12:04:29.008Z,31.8
2022-08-22T12:05:33.214Z,31.9
2022-08-22T12:06:44.969Z,31.9
2022-08-22T12:07:59.213Z,31.9
2022-08-22T12:09:01.114Z,32.1
2022-08-22T12:10:15.253Z,32.0
2022-08-22T12:11:26.968Z,32.1
2022-08-22T12:12:39.216Z,31.7
2022-08-22T12:13:45.777Z,31.4
2022-08-22T12:14:58.198Z,32.0
2022-08-22T12:16:00.123Z,31.5
2022-08-22T12:17:21.237Z,31.9
2022-08-22T12:18:23.967Z,31.9
2022-08-22T12:19:42.108Z,31.2
2022-08-22T12:20:45.837Z,31.5
2022-08-22T12:21:49.621Z,31.7
2022-08-22T12:23:02.543Z,31.4
2022-08-22T12:24:19.383Z,30.9
2022-08-22T12:25:23.728Z,30.5
2022-08-22T12:26:25.617Z,30.5
2022-08-22T12:27:38.728Z,29.9
2022-08-22T12:28:46.809Z,30.1
2022-08-22T12:29:59.248Z,30.0
2022-08-22T12:31:11.148Z,29.9
2022-08-22T12:32:27.555Z,30.1
2022-08-22T12:33:29.888Z,30.2
2022-08-22T12:34:35.790Z,30.3
2022-08-22T12:35:47.679Z,30.5
2022-08-22T12:37:00.261Z,30.2
2022-08-22T12:38:02.154Z,30.6
2022-08-22T12:39:14.737Z,30.4
2022-08-22T12:40:27.269Z,30.9
2022-08-22T12:41:39.758Z,30.8
2022-08-22T12:42:48.498Z,30.9
2022-08-22T12:43:51.251Z,30.7
2022-08-22T12:45:03.599Z,30.9
2022-08-22T12:46:16.252Z,31.1
2022-08-22T12:47:28.822Z,30.8
2022-08-22T12:48:34.758Z,30.9
2022-08-22T12:49:52.361Z,30.9
2022-08-22T12:50:55.280Z,30.9
2022-08-22T12:52:06.929Z,30.4
2022-08-22T12:53:09.777Z,30.0
2022-08-22T12:54:22.186Z,29.9
2022-08-22T12:55:35.749Z,29.5
2022-08-22T12:58:03.715Z,29.9
2022-08-22T12:58:56.008Z,29.7
2022-08-22T13:00:08.554Z,29.9
2022-08-22T13:01:33.691Z,29.9
2022-08-22T13:02:27.534Z,29.8
2022-08-22T13:03:39.179Z,29.7
2022-08-22T13:04:51.568Z,29.6
2022-08-22T13:05:59.183Z,27.6
2022-08-22T13:07:13.070Z,28.6
2022-08-22T13:08:17.349Z,28.4
2022-08-22T13:09:30.673Z,28.6
2022-08-22T13:10:32.601Z,28.5
2022-08-22T13:11:45.041Z,28.5
2022-08-22T13:12:57.129Z,27.7
2022-08-22T13:14:09.546Z,28.7
2022-08-22T13:15:10.974Z,28.7
2022-08-22T13:16:23.570Z,29.1
2022-08-22T13:17:35.932Z,29.3
2022-08-22T13:18:53.584Z,29.1
2022-08-22T13:19:55.968Z,29.0
2022-08-22T13:20:59.057Z,28.8
2022-08-22T13:22:10.992Z,28.8
2022-08-22T13:23:23.565Z,29.2
2022-08-22T13:24:38.876Z,29.2
2022-08-22T13:25:42.045Z,29.3
2022-08-22T13:26:53.669Z,27.9
2022-08-22T13:28:06.226Z,28.9
2022-08-22T13:29:25.238Z,28.8
2022-08-22T13:30:19.035Z,29.0
2022-08-22T13:31:30.639Z,28.9
2022-08-22T13:32:44.264Z,28.6
2022-08-22T13:33:46.636Z,28.3
2022-08-22T13:34:59.082Z,28.4
2022-08-22T13:36:11.020Z,28.1
2022-08-22T13:37:13.578Z,27.7
2022-08-22T13:38:26.637Z,28.0
2022-08-22T13:39:39.133Z,27.5
2022-08-22T13:40:41.136Z,28.2
2022-08-22T13:41:54.071Z,27.9
2022-08-22T13:44:32.103Z,27.6
2022-08-22T13:45:24.138Z,27.7
2022-08-22T13:46:44.526Z,27.6
2022-08-22T13:47:40.499Z,27.6
2022-08-22T13:48:52.137Z,27.3
2022-08-22T13:50:06.055Z,27.4
2022-08-22T13:51:08.066Z,27.5
2022-08-22T13:52:29.712Z,27.0
2022-08-22T13:53:32.220Z,26.9
2022-08-22T13:54:44.547Z,27.4
2022-08-22T13:55:49.235Z,27.7
2022-08-22T13:57:02.038Z,27.7
2022-08-22T13:58:13.671Z,28.1
2022-08-22T13:59:34.251Z,27.5
2022-08-22T14:00:31.722Z,28.4
2022-08-22T14:01:34.741Z,29.0
2022-08-22T14:02:47.577Z,29.2
2022-08-22T14:03:59.556Z,29.3
2022-08-22T14:05:12.031Z,29.4
2022-08-22T14:06:32.497Z,29.6
2022-08-22T14:07:30.561Z,29.5
2022-08-22T14:08:32.316Z,29.8
2022-08-22T14:09:45.352Z,29.9
2022-08-22T14:10:52.253Z,30.0
2022-08-22T14:12:00.557Z,30.0
2022-08-22T14:13:12.219Z,30.2
2022-08-22T14:14:26.563Z,30.3
2022-08-22T14:15:45.509Z,30.3
2022-08-22T14:16:39.021Z,30.4
2022-08-22T14:17:50.655Z,30.3
2022-08-22T14:19:05.903Z,30.4
2022-08-22T14:20:08.331Z,30.4
2022-08-22T14:21:23.541Z,30.4
2022-08-22T14:22:35.701Z,30.5
2022-08-22T14:25:05.026Z,30.4
2022-08-22T14:25:59.491Z,30.5
2022-08-22T14:27:11.978Z,30.4
2022-08-22T14:28:16.354Z,30.4
2022-08-22T14:29:29.026Z,30.5
2022-08-22T14:30:43.684Z,29.9
2022-08-22T14:31:46.496Z,28.8
2022-08-22T14:32:58.154Z,30.1
2022-08-22T14:34:11.013Z,30.6
2022-08-22T14:35:34.204Z,30.7
2022-08-22T14:36:30.527Z,30.9
2022-08-22T14:37:42.183Z,30.7
2022-08-22T14:38:46.385Z,30.9
2022-08-22T14:39:58.257Z,30.8
2022-08-22T14:41:11.013Z,30.9
2022-08-22T14:42:12.818Z,30.9
2022-08-22T14:43:26.119Z,30.9
2022-08-22T14:44:37.873Z,30.8
2022-08-22T14:45:50.525Z,30.8
2022-08-22T14:46:52.443Z,30.9
2022-08-22T14:48:29.595Z,30.9
2022-08-22T14:49:14.144Z,31.0
2022-08-22T14:50:27.992Z,30.8
2022-08-22T14:51:30.482Z,30.9
2022-08-22T14:52:42.223Z,30.8
2022-08-22T14:53:54.546Z,30.9
2022-08-22T14:55:08.725Z,31.0
2022-08-22T14:56:11.516Z,30.9
2022-08-22T14:57:23.108Z,31.0
2022-08-22T14:58:35.510Z,31.0
2022-08-22T14:59:37.992Z,30.7
2022-08-22T15:00:50.519Z,30.8
2022-08-22T15:02:02.477Z,30.8
2022-08-22T15:03:15.013Z,30.8
2022-08-22T15:04:19.487Z,30.7
2022-08-22T15:05:37.997Z,30.9
2022-08-22T15:06:37.363Z,30.8
2022-08-22T15:07:50.010Z,30.9
2022-08-22T15:09:07.727Z,30.8
2022-08-22T15:10:11.900Z,30.9
2022-08-22T15:11:14.122Z,30.9
2022-08-22T15:12:26.987Z,30.8
2022-08-22T15:13:38.651Z,30.7
2022-08-22T15:14:52.422Z,30.9
2022-08-22T15:15:59.780Z,30.7
2022-08-22T15:17:07.528Z,30.8
2022-08-22T15:18:19.262Z,30.8
2022-08-22T15:19:22.000Z,30.8
2022-08-22T15:20:36.428Z,31.0
2022-08-22T15:21:48.009Z,31.0
2022-08-22T15:23:00.162Z,30.9
2022-08-22T15:24:03.558Z,30.9
2022-08-22T15:25:15.315Z,30.9
2022-08-22T15:26:28.185Z,31.0
2022-08-22T15:27:30.086Z,30.9
2022-08-22T15:28:52.875Z,30.8
2022-08-22T15:29:55.386Z,30.8
2022-08-22T15:31:08.027Z,30.9
2022-08-22T15:32:10.386Z,31.1
2022-08-22T15:33:26.529Z,31.0
2022-08-22T15:34:31.369Z,31.0